New Orleans, Louisiana
Traffic Map
Current Weather Conditions
New Orleans, Louisiana
Few Clouds
Few Clouds
89°
Feels Like: 98°
Wind Chill: 89° Ceiling: Unl
Heat Index: 98° Visibility: 10mi
Dew Point: 74° Wind: 10mph
Humidity: 61% Direction: 110° (ESE)
Pressure: 30.01in Gusts: 0mph
Raw Report DataKNEW 221653Z 11009KT 10SM FEW030 FEW039 32/23 A3001 RMK AO2 SLP154 T03170233
Traffic Incident Summary
Active as of:
Severity:
Category:
InformationThere was an issue retrieving the traffic information for this location. Please try a different location or try again shortly.
Advertisements